sensor_id;sensor_type;location;lat;lon;timestamp;pressure;altitude;pressure_sealevel;temperature;humidity
70546;BME280;58098;51.680;5.134;2023-02-11T00:01:57;103564.66;;;6.16;100.00
70546;BME280;58098;51.680;5.134;2023-02-11T00:04:24;103563.81;;;6.16;100.00
70546;BME280;58098;51.680;5.134;2023-02-11T00:06:49;103562.91;;;6.17;100.00
70546;BME280;58098;51.680;5.134;2023-02-11T00:09:14;103559.50;;;6.15;100.00
70546;BME280;58098;51.680;5.134;2023-02-11T00:11:40;103554.34;;;6.12;100.00
70546;BME280;58098;51.680;5.134;2023-02-11T00:14:06;103556.09;;;6.13;100.00
70546;BME280;58098;51.680;5.134;2023-02-11T00:16:34;103555.22;;;6.12;100.00
70546;BME280;58098;51.680;5.134;2023-02-11T00:19:00;103545.72;;;6.11;100.00
70546;BME280;58098;51.680;5.134;2023-02-11T00:21:26;103541.47;;;6.07;100.00
70546;BME280;58098;51.680;5.134;2023-02-11T00:23:52;103513.94;;;6.02;100.00
70546;BME280;58098;51.680;5.134;2023-02-11T00:26:24;103529.47;;;6.03;100.00
70546;BME280;58098;51.680;5.134;2023-02-11T00:28:50;103542.34;;;6.08;100.00
70546;BME280;58098;51.680;5.134;2023-02-11T00:31:18;103546.66;;;6.07;100.00
70546;BME280;58098;51.680;5.134;2023-02-11T00:33:44;103554.47;;;6.04;100.00
70546;BME280;58098;51.680;5.134;2023-02-11T00:36:15;103542.38;;;6.05;100.00
70546;BME280;58098;51.680;5.134;2023-02-11T00:38:42;103552.75;;;6.05;100.00
70546;BME280;58098;51.680;5.134;2023-02-11T00:41:08;103545.97;;;5.97;100.00
70546;BME280;58098;51.680;5.134;2023-02-11T00:43:35;103562.25;;;6.06;100.00
70546;BME280;58098;51.680;5.134;2023-02-11T00:46:00;103555.34;;;6.05;100.00
70546;BME280;58098;51.680;5.134;2023-02-11T00:48:26;103553.56;;;6.08;100.00
70546;BME280;58098;51.680;5.134;2023-02-11T00:50:51;103551.91;;;6.04;100.00
70546;BME280;58098;51.680;5.134;2023-02-11T00:53:16;103548.47;;;6.02;100.00
70546;BME280;58098;51.680;5.134;2023-02-11T00:55:42;103544.25;;;5.96;100.00
70546;BME280;58098;51.680;5.134;2023-02-11T00:58:07;103537.25;;;6.02;100.00
70546;BME280;58098;51.680;5.134;2023-02-11T01:00:32;103527.00;;;5.95;100.00
70546;BME280;58098;51.680;5.134;2023-02-11T01:02:58;103526.88;;;6.03;100.00
70546;BME280;58098;51.680;5.134;2023-02-11T01:05:23;103516.69;;;5.92;100.00
70546;BME280;58098;51.680;5.134;2023-02-11T01:07:48;103542.50;;;5.97;100.00
70546;BME280;58098;51.680;5.134;2023-02-11T01:10:14;103537.41;;;5.92;100.00
70546;BME280;58098;51.680;5.134;2023-02-11T01:12:39;103524.53;;;5.88;100.00
70546;BME280;58098;51.680;5.134;2023-02-11T01:15:06;103539.13;;;5.93;100.00
70546;BME280;58098;51.680;5.134;2023-02-11T01:17:33;103540.69;;;6.02;100.00
70546;BME280;58098;51.680;5.134;2023-02-11T01:20:01;103545.91;;;6.01;100.00
70546;BME280;58098;51.680;5.134;2023-02-11T01:22:27;103540.81;;;5.94;100.00
70546;BME280;58098;51.680;5.134;2023-02-11T01:24:52;103542.53;;;5.95;100.00
70546;BME280;58098;51.680;5.134;2023-02-11T01:27:17;103557.22;;;5.95;100.00
70546;BME280;58098;51.680;5.134;2023-02-11T01:29:43;103561.47;;;6.01;100.00
70546;BME280;58098;51.680;5.134;2023-02-11T01:32:08;103550.25;;;6.00;100.00
70546;BME280;58098;51.680;5.134;2023-02-11T01:34:33;103546.00;;;5.94;100.00
70546;BME280;58098;51.680;5.134;2023-02-11T01:36:59;103543.41;;;5.96;100.00
70546;BME280;58098;51.680;5.134;2023-02-11T01:39:25;103533.88;;;5.98;100.00
70546;BME280;58098;51.680;5.134;2023-02-11T01:41:51;103530.44;;;5.96;100.00
70546;BME280;58098;51.680;5.134;2023-02-11T01:46:49;103502.91;;;5.90;100.00
70546;BME280;58098;51.680;5.134;2023-02-11T01:49:22;103497.72;;;5.90;100.00
70546;BME280;58098;51.680;5.134;2023-02-11T01:51:54;103508.94;;;5.89;100.00
70546;BME280;58098;51.680;5.134;2023-02-11T01:54:23;103494.34;;;5.82;100.00
70546;BME280;58098;51.680;5.134;2023-02-11T01:57:09;103496.16;;;5.79;100.00
70546;BME280;58098;51.680;5.134;2023-02-11T02:00:18;103516.78;;;5.86;100.00
70546;BME280;58098;51.680;5.134;2023-02-11T02:02:55;103524.56;;;5.83;100.00
70546;BME280;58098;51.680;5.134;2023-02-11T02:05:36;103504.88;;;5.73;100.00
70546;BME280;58098;51.680;5.134;2023-02-11T02:10:54;103528.91;;;5.84;100.00
70546;BME280;58098;51.680;5.134;2023-02-11T02:13:21;103515.97;;;5.81;100.00
70546;BME280;58098;51.680;5.134;2023-02-11T02:15:59;103525.44;;;5.85;100.00
70546;BME280;58098;51.680;5.134;2023-02-11T02:18:32;103517.66;;;5.84;100.00
70546;BME280;58098;51.680;5.134;2023-02-11T02:24:30;103520.50;;;5.67;100.00
70546;BME280;58098;51.680;5.134;2023-02-11T02:37:58;103512.09;;;5.53;100.00
70546;BME280;58098;51.680;5.134;2023-02-11T02:40:35;103523.19;;;5.61;100.00
70546;BME280;58098;51.680;5.134;2023-02-11T02:43:06;103509.53;;;5.50;100.00
70546;BME280;58098;51.680;5.134;2023-02-11T02:45:33;103515.63;;;5.49;100.00
70546;BME280;58098;51.680;5.134;2023-02-11T02:47:59;103511.41;;;5.41;100.00
70546;BME280;58098;51.680;5.134;2023-02-11T02:50:28;103518.28;;;5.43;100.00
70546;BME280;58098;51.680;5.134;2023-02-11T02:53:05;103525.22;;;5.43;100.00
70546;BME280;58098;51.680;5.134;2023-02-11T02:55:45;103526.94;;;5.41;100.00
70546;BME280;58098;51.680;5.134;2023-02-11T03:01:09;103532.16;;;5.39;100.00
70546;BME280;58098;51.680;5.134;2023-02-11T03:06:12;103535.56;;;5.43;100.00
70546;BME280;58098;51.680;5.134;2023-02-11T03:08:52;103522.63;;;5.43;100.00
70546;BME280;58098;51.680;5.134;2023-02-11T03:11:20;103514.84;;;5.43;100.00
70546;BME280;58098;51.680;5.134;2023-02-11T03:13:47;103520.00;;;5.44;100.00
70546;BME280;58098;51.680;5.134;2023-02-11T03:16:17;103516.59;;;5.42;100.00
70546;BME280;58098;51.680;5.134;2023-02-11T03:18:48;103498.50;;;5.39;100.00
70546;BME280;58098;51.680;5.134;2023-02-11T03:21:15;103495.03;;;5.40;100.00
70546;BME280;58098;51.680;5.134;2023-02-11T03:23:49;103491.56;;;5.41;100.00
70546;BME280;58098;51.680;5.134;2023-02-11T03:26:43;103502.66;;;5.49;100.00
70546;BME280;58098;51.680;5.134;2023-02-11T03:29:34;103512.13;;;5.52;100.00
70546;BME280;58098;51.680;5.134;2023-02-11T03:34:51;103488.91;;;5.47;100.00
70546;BME280;58098;51.680;5.134;2023-02-11T03:37:24;103499.97;;;5.55;100.00
70546;BME280;58098;51.680;5.134;2023-02-11T03:39:56;103496.47;;;5.59;100.00
70546;BME280;58098;51.680;5.134;2023-02-11T03:42:28;103481.00;;;5.53;100.00
70546;BME280;58098;51.680;5.134;2023-02-11T03:45:02;103479.25;;;5.55;100.00
70546;BME280;58098;51.680;5.134;2023-02-11T03:47:30;103488.72;;;5.58;100.00
70546;BME280;58098;51.680;5.134;2023-02-11T03:49:58;103494.66;;;5.64;100.00
70546;BME280;58098;51.680;5.134;2023-02-11T03:52:25;103464.75;;;5.44;100.00
70546;BME280;58098;51.680;5.134;2023-02-11T03:54:54;103504.94;;;5.67;100.00
70546;BME280;58098;51.680;5.134;2023-02-11T03:57:21;103504.13;;;5.65;100.00
70546;BME280;58098;51.680;5.134;2023-02-11T04:02:15;103483.53;;;5.59;100.00
70546;BME280;58098;51.680;5.134;2023-02-11T04:04:40;103487.72;;;5.65;100.00
70546;BME280;58098;51.680;5.134;2023-02-11T04:07:05;103502.38;;;5.67;100.00
70546;BME280;58098;51.680;5.134;2023-02-11T04:09:31;103498.94;;;5.67;100.00
70546;BME280;58098;51.680;5.134;2023-02-11T04:11:57;103497.19;;;5.69;100.00
70546;BME280;58098;51.680;5.134;2023-02-11T04:14:22;103482.53;;;5.66;100.00
70546;BME280;58098;51.680;5.134;2023-02-11T04:16:47;103468.00;;;5.58;100.00
70546;BME280;58098;51.680;5.134;2023-02-11T04:19:13;103472.25;;;5.62;100.00
70546;BME280;58098;51.680;5.134;2023-02-11T04:21:38;103473.06;;;5.65;100.00
70546;BME280;58098;51.680;5.134;2023-02-11T04:24:03;103467.91;;;5.62;100.00
70546;BME280;58098;51.680;5.134;2023-02-11T04:26:29;103478.22;;;5.67;100.00
70546;BME280;58098;51.680;5.134;2023-02-11T04:28:54;103464.50;;;5.62;100.00
70546;BME280;58098;51.680;5.134;2023-02-11T04:31:19;103467.91;;;5.62;100.00
70546;BME280;58098;51.680;5.134;2023-02-11T04:33:45;103457.75;;;5.52;100.00
70546;BME280;58098;51.680;5.134;2023-02-11T04:36:10;103452.56;;;5.50;100.00
70546;BME280;58098;51.680;5.134;2023-02-11T04:38:35;103445.81;;;5.42;100.00
70546;BME280;58098;51.680;5.134;2023-02-11T04:41:01;103463.97;;;5.40;100.00
70546;BME280;58098;51.680;5.134;2023-02-11T04:43:26;103476.13;;;5.33;100.00
70546;BME280;58098;51.680;5.134;2023-02-11T04:45:55;103478.78;;;5.29;100.00
70546;BME280;58098;51.680;5.134;2023-02-11T04:48:21;103467.75;;;5.18;100.00
70546;BME280;58098;51.680;5.134;2023-02-11T04:50:46;103479.75;;;5.22;100.00
70546;BME280;58098;51.680;5.134;2023-02-11T04:53:12;103464.44;;;5.08;100.00
70546;BME280;58098;51.680;5.134;2023-02-11T04:55:37;103472.31;;;5.01;100.00
70546;BME280;58098;51.680;5.134;2023-02-11T04:58:02;103485.19;;;5.04;100.00
70546;BME280;58098;51.680;5.134;2023-02-11T05:00:28;103489.63;;;4.94;100.00
70546;BME280;58098;51.680;5.134;2023-02-11T05:02:53;103488.69;;;5.00;100.00
70546;BME280;58098;51.680;5.134;2023-02-11T05:05:18;103495.63;;;4.98;100.00
70546;BME280;58098;51.680;5.134;2023-02-11T05:07:44;103477.53;;;4.96;100.00
70546;BME280;58098;51.680;5.134;2023-02-11T05:10:09;103487.00;;;4.99;100.00
70546;BME280;58098;51.680;5.134;2023-02-11T05:12:34;103493.91;;;4.97;100.00
70546;BME280;58098;51.680;5.134;2023-02-11T05:15:00;103490.50;;;4.92;100.00
70546;BME280;58098;51.680;5.134;2023-02-11T05:17:25;103494.00;;;4.89;100.00
70546;BME280;58098;51.680;5.134;2023-02-11T05:19:50;103486.22;;;4.89;100.00
70546;BME280;58098;51.680;5.134;2023-02-11T05:22:16;103493.13;;;4.90;100.00
70546;BME280;58098;51.680;5.134;2023-02-11T05:24:41;103486.28;;;4.86;100.00
70546;BME280;58098;51.680;5.134;2023-02-11T05:27:06;103488.88;;;4.85;100.00
70546;BME280;58098;51.680;5.134;2023-02-11T05:29:32;103493.19;;;4.86;100.00
70546;BME280;58098;51.680;5.134;2023-02-11T05:31:58;103488.03;;;4.86;100.00
70546;BME280;58098;51.680;5.134;2023-02-11T05:34:24;103455.50;;;4.66;100.00
70546;BME280;58098;51.680;5.134;2023-02-11T05:36:49;103485.50;;;4.81;100.00
70546;BME280;58098;51.680;5.134;2023-02-11T05:39:14;103481.19;;;4.80;100.00
70546;BME280;58098;51.680;5.134;2023-02-11T05:41:40;103477.72;;;4.80;100.00
70546;BME280;58098;51.680;5.134;2023-02-11T05:44:05;103478.63;;;4.79;100.00
70546;BME280;58098;51.680;5.134;2023-02-11T05:46:30;103494.94;;;4.84;100.00
70546;BME280;58098;51.680;5.134;2023-02-11T05:48:56;103470.91;;;4.76;100.00
70546;BME280;58098;51.680;5.134;2023-02-11T05:51:21;103478.56;;;4.83;100.00
70546;BME280;58098;51.680;5.134;2023-02-11T05:53:47;103475.09;;;4.86;100.00
70546;BME280;58098;51.680;5.134;2023-02-11T05:56:12;103469.00;;;4.91;100.00
70546;BME280;58098;51.680;5.134;2023-02-11T05:58:38;103457.84;;;4.86;100.00
70546;BME280;58098;51.680;5.134;2023-02-11T06:01:04;103455.19;;;4.89;100.00
70546;BME280;58098;51.680;5.134;2023-02-11T06:03:29;103462.94;;;4.89;100.00
70546;BME280;58098;51.680;5.134;2023-02-11T06:05:54;103475.84;;;4.94;100.00
70546;BME280;58098;51.680;5.134;2023-02-11T06:08:20;103473.13;;;5.03;100.00
70546;BME280;58098;51.680;5.134;2023-02-11T06:10:45;103482.53;;;5.10;100.00
70546;BME280;58098;51.680;5.134;2023-02-11T06:13:10;103467.88;;;5.09;100.00
70546;BME280;58098;51.680;5.134;2023-02-11T06:15:36;103481.56;;;5.17;100.00
70546;BME280;58098;51.680;5.134;2023-02-11T06:18:01;103432.72;;;4.96;100.00
70546;BME280;58098;51.680;5.134;2023-02-11T06:20:26;103474.56;;;5.25;100.00
70546;BME280;58098;51.680;5.134;2023-02-11T06:22:52;103474.50;;;5.28;100.00
70546;BME280;58098;51.680;5.134;2023-02-11T06:25:17;103475.34;;;5.28;100.00
70546;BME280;58098;51.680;5.134;2023-02-11T06:27:42;103483.78;;;5.41;100.00
70546;BME280;58098;51.680;5.134;2023-02-11T06:30:08;103494.94;;;5.46;100.00
70546;BME280;58098;51.680;5.134;2023-02-11T06:32:34;103472.59;;;5.39;100.00
70546;BME280;58098;51.680;5.134;2023-02-11T06:35:00;103488.03;;;5.45;100.00
70546;BME280;58098;51.680;5.134;2023-02-11T06:37:25;103492.31;;;5.48;100.00
70546;BME280;58098;51.680;5.134;2023-02-11T06:39:51;103482.03;;;5.43;100.00
70546;BME280;58098;51.680;5.134;2023-02-11T06:42:16;103488.81;;;5.50;100.00
70546;BME280;58098;51.680;5.134;2023-02-11T06:44:41;103469.94;;;5.44;100.00
70546;BME280;58098;51.680;5.134;2023-02-11T06:47:06;103487.91;;;5.54;100.00
70546;BME280;58098;51.680;5.134;2023-02-11T06:49:32;103487.94;;;5.51;100.00
70546;BME280;58098;51.680;5.134;2023-02-11T06:51:57;103483.72;;;5.46;100.00
70546;BME280;58098;51.680;5.134;2023-02-11T06:54:22;103484.56;;;5.46;100.00
70546;BME280;58098;51.680;5.134;2023-02-11T06:56:48;103493.16;;;5.48;100.00
70546;BME280;58098;51.680;5.134;2023-02-11T06:59:17;103511.19;;;5.57;100.00
70546;BME280;58098;51.680;5.134;2023-02-11T07:01:45;103486.19;;;5.53;100.00
70546;BME280;58098;51.680;5.134;2023-02-11T07:04:10;103501.66;;;5.59;100.00
70546;BME280;58098;51.680;5.134;2023-02-11T07:06:36;103511.91;;;5.65;100.00
70546;BME280;58098;51.680;5.134;2023-02-11T07:09:03;103519.63;;;5.68;100.00
70546;BME280;58098;51.680;5.134;2023-02-11T07:11:28;103517.03;;;5.68;100.00
70546;BME280;58098;51.680;5.134;2023-02-11T07:13:58;103516.19;;;5.68;100.00
70546;BME280;58098;51.680;5.134;2023-02-11T07:16:24;103513.66;;;5.63;100.00
70546;BME280;58098;51.680;5.134;2023-02-11T07:18:49;103517.91;;;5.69;100.00
70546;BME280;58098;51.680;5.134;2023-02-11T07:21:18;103517.03;;;5.68;100.00
70546;BME280;58098;51.680;5.134;2023-02-11T07:23:43;103518.75;;;5.69;100.00
70546;BME280;58098;51.680;5.134;2023-02-11T07:26:11;103525.56;;;5.76;100.00
70546;BME280;58098;51.680;5.134;2023-02-11T07:28:38;103520.41;;;5.73;100.00
70546;BME280;58098;51.680;5.134;2023-02-11T07:31:23;103535.84;;;5.79;100.00
70546;BME280;58098;51.680;5.134;2023-02-11T07:33:51;103533.28;;;5.78;100.00
70546;BME280;58098;51.680;5.134;2023-02-11T07:36:17;103541.00;;;5.82;100.00
70546;BME280;58098;51.680;5.134;2023-02-11T07:38:43;103536.66;;;5.83;100.00
70546;BME280;58098;51.680;5.134;2023-02-11T07:41:10;103542.63;;;5.89;100.00
70546;BME280;58098;51.680;5.134;2023-02-11T07:43:37;103537.44;;;5.89;100.00
70546;BME280;58098;51.680;5.134;2023-02-11T07:46:07;103542.53;;;5.95;100.00
70546;BME280;58098;51.680;5.134;2023-02-11T07:48:32;103553.75;;;5.97;100.00
70546;BME280;58098;51.680;5.134;2023-02-11T07:51:25;103550.19;;;6.02;100.00
70546;BME280;58098;51.680;5.134;2023-02-11T07:53:52;103544.25;;;5.96;100.00
70546;BME280;58098;51.680;5.134;2023-02-11T07:56:19;103556.16;;;6.07;100.00
70546;BME280;58098;51.680;5.134;2023-02-11T07:58:45;103545.84;;;6.04;100.00
70546;BME280;58098;51.680;5.134;2023-02-11T08:01:16;103546.63;;;6.10;100.00
70546;BME280;58098;51.680;5.134;2023-02-11T08:03:42;103540.66;;;6.05;100.00
70546;BME280;58098;51.680;5.134;2023-02-11T08:06:10;103549.13;;;6.15;100.00
70546;BME280;58098;51.680;5.134;2023-02-11T08:08:36;103554.31;;;6.15;100.00
70546;BME280;58098;51.680;5.134;2023-02-11T08:11:07;103552.59;;;6.14;100.00
70546;BME280;58098;51.680;5.134;2023-02-11T08:13:32;103549.19;;;6.12;100.00
70546;BME280;58098;51.680;5.134;2023-02-11T08:15:58;103569.75;;;6.22;100.00
70546;BME280;58098;51.680;5.134;2023-02-11T08:18:23;103561.06;;;6.25;100.00
70546;BME280;58098;51.680;5.134;2023-02-11T08:20:49;103554.19;;;6.22;100.00
70546;BME280;58098;51.680;5.134;2023-02-11T08:23:14;103548.16;;;6.22;100.00
70546;BME280;58098;51.680;5.134;2023-02-11T08:25:39;103565.22;;;6.35;100.00
70546;BME280;58098;51.680;5.134;2023-02-11T08:28:05;103556.66;;;6.28;100.00
70546;BME280;58098;51.680;5.134;2023-02-11T08:30:30;103569.34;;;6.45;100.00
70546;BME280;58098;51.680;5.134;2023-02-11T08:32:55;103559.91;;;6.41;100.00
70546;BME280;58098;51.680;5.134;2023-02-11T08:35:21;103546.97;;;6.38;100.00
70546;BME280;58098;51.680;5.134;2023-02-11T08:37:46;103562.41;;;6.47;100.00
70546;BME280;58098;51.680;5.134;2023-02-11T08:40:11;103559.75;;;6.48;100.00
70546;BME280;58098;51.680;5.134;2023-02-11T08:42:37;103565.72;;;6.53;100.00
70546;BME280;58098;51.680;5.134;2023-02-11T08:45:02;103560.56;;;6.52;100.00
70546;BME280;58098;51.680;5.134;2023-02-11T08:47:29;103565.59;;;6.61;100.00
70546;BME280;58098;51.680;5.134;2023-02-11T08:49:55;103573.22;;;6.69;100.00
70546;BME280;58098;51.680;5.134;2023-02-11T08:52:20;103581.78;;;6.74;100.00
70546;BME280;58098;51.680;5.134;2023-02-11T08:54:46;103571.41;;;6.72;100.00
70546;BME280;58098;51.680;5.134;2023-02-11T08:57:11;103580.75;;;6.82;100.00
70546;BME280;58098;51.680;5.134;2023-02-11T08:59:36;103578.16;;;6.82;100.00
70546;BME280;58098;51.680;5.134;2023-02-11T09:02:04;103578.00;;;6.90;100.00
70546;BME280;58098;51.680;5.134;2023-02-11T09:04:29;103578.75;;;6.95;100.00
70546;BME280;58098;51.680;5.134;2023-02-11T09:06:56;103573.63;;;6.93;100.00
70546;BME280;58098;51.680;5.134;2023-02-11T09:09:21;103592.47;;;7.01;100.00
70546;BME280;58098;51.680;5.134;2023-02-11T09:14:25;103575.13;;;7.03;100.00
70546;BME280;58098;51.680;5.134;2023-02-11T09:16:52;103584.53;;;7.10;100.00
70546;BME280;58098;51.680;5.134;2023-02-11T09:19:22;103569.94;;;7.03;100.00
70546;BME280;58098;51.680;5.134;2023-02-11T09:21:48;103585.25;;;7.17;100.00
70546;BME280;58098;51.680;5.134;2023-02-11T09:24:14;103566.44;;;7.04;100.00
70546;BME280;58098;51.680;5.134;2023-02-11T09:26:40;103592.06;;;7.22;100.00
70546;BME280;58098;51.680;5.134;2023-02-11T09:29:07;103592.81;;;7.26;100.00
70546;BME280;58098;51.680;5.134;2023-02-11T09:31:32;103597.16;;;7.25;100.00
70546;BME280;58098;51.680;5.134;2023-02-11T09:34:04;103593.53;;;7.32;100.00
70546;BME280;58098;51.680;5.134;2023-02-11T09:36:37;103603.09;;;7.32;100.00
70546;BME280;58098;51.680;5.134;2023-02-11T09:39:05;103580.75;;;7.25;100.00
70546;BME280;58098;51.680;5.134;2023-02-11T09:44:37;103602.84;;;7.44;100.00
70546;BME280;58098;51.680;5.134;2023-02-11T09:47:27;103602.84;;;7.44;100.00
70546;BME280;58098;51.680;5.134;2023-02-11T09:49:59;103607.94;;;7.47;100.00
70546;BME280;58098;51.680;5.134;2023-02-11T09:52:45;103609.63;;;7.51;100.00
70546;BME280;58098;51.680;5.134;2023-02-11T09:55:24;103613.88;;;7.54;100.00
70546;BME280;58098;51.680;5.134;2023-02-11T09:57:50;103605.28;;;7.52;100.00
70546;BME280;58098;51.680;5.134;2023-02-11T10:05:29;103618.72;;;7.70;100.00
70546;BME280;58098;51.680;5.134;2023-02-11T10:08:15;103612.72;;;7.67;100.00
70546;BME280;58098;51.680;5.134;2023-02-11T10:10:49;103617.69;;;7.77;100.00
70546;BME280;58098;51.680;5.134;2023-02-11T10:18:50;103631.31;;;7.87;100.00
70546;BME280;58098;51.680;5.134;2023-02-11T10:21:34;103635.47;;;7.95;100.00
70546;BME280;58098;51.680;5.134;2023-02-11T10:24:09;103626.81;;;7.95;100.00
70546;BME280;58098;51.680;5.134;2023-02-11T10:26:38;103637.91;;;8.02;100.00
70546;BME280;58098;51.680;5.134;2023-02-11T10:29:34;103631.97;;;7.96;100.00
70546;BME280;58098;51.680;5.134;2023-02-11T10:31:59;103648.31;;;8.02;100.00
70546;BME280;58098;51.680;5.134;2023-02-11T10:34:28;103644.03;;;7.99;100.00
70546;BME280;58098;51.680;5.134;2023-02-11T10:36:53;103650.97;;;8.00;100.00
70546;BME280;58098;51.680;5.134;2023-02-11T10:39:28;103649.25;;;7.99;100.00
70546;BME280;58098;51.680;5.134;2023-02-11T10:42:10;103672.28;;;8.14;100.00
70546;BME280;58098;51.680;5.134;2023-02-11T10:44:58;103675.66;;;8.18;100.00
70546;BME280;58098;51.680;5.134;2023-02-11T10:47:28;103681.81;;;8.15;100.00
70546;BME280;58098;51.680;5.134;2023-02-11T10:49:55;103675.66;;;8.19;100.00
70546;BME280;58098;51.680;5.134;2023-02-11T10:52:27;103681.53;;;8.26;100.00
70546;BME280;58098;51.680;5.134;2023-02-11T10:57:41;103665.13;;;8.24;100.00
70546;BME280;58098;51.680;5.134;2023-02-11T11:02:43;103683.13;;;8.34;100.00
70546;BME280;58098;51.680;5.134;2023-02-11T11:05:16;103677.00;;;8.35;100.00
70546;BME280;58098;51.680;5.134;2023-02-11T11:07:52;103677.81;;;8.37;100.00
70546;BME280;58098;51.680;5.134;2023-02-11T11:10:30;103681.34;;;8.35;100.00
70546;BME280;58098;51.680;5.134;2023-02-11T11:12:58;103679.53;;;8.38;100.00
70546;BME280;58098;51.680;5.134;2023-02-11T11:15:26;103677.81;;;8.37;100.00
70546;BME280;58098;51.680;5.134;2023-02-11T11:18:14;103688.59;;;8.57;100.00
70546;BME280;58098;51.680;5.134;2023-02-11T11:20:59;103693.56;;;8.68;100.00
70546;BME280;58098;51.680;5.134;2023-02-11T11:23:27;103688.22;;;8.73;100.00
70546;BME280;58098;51.680;5.134;2023-02-11T11:26:14;103666.53;;;8.74;100.00
70546;BME280;58098;51.680;5.134;2023-02-11T11:28:50;103661.16;;;8.80;100.00
70546;BME280;58098;51.680;5.134;2023-02-11T11:31:19;103678.97;;;8.95;100.00
70546;BME280;58098;51.680;5.134;2023-02-11T11:33:46;103683.88;;;9.05;100.00
70546;BME280;58098;51.680;5.134;2023-02-11T11:36:19;103683.53;;;9.19;100.00
70546;BME280;58098;51.680;5.134;2023-02-11T11:38:50;103681.91;;;9.15;100.00
70546;BME280;58098;51.680;5.134;2023-02-11T11:43:59;103674.09;;;9.15;100.00
70546;BME280;58098;51.680;5.134;2023-02-11T11:46:27;103689.59;;;9.18;100.00
70546;BME280;58098;51.680;5.134;2023-02-11T11:49:00;103688.00;;;9.14;100.00
70546;BME280;58098;51.680;5.134;2023-02-11T11:51:28;103673.38;;;9.08;100.00
70546;BME280;58098;51.680;5.134;2023-02-11T11:54:02;103695.00;;;9.12;100.00
70546;BME280;58098;51.680;5.134;2023-02-11T11:56:34;103701.75;;;9.19;100.00
70546;BME280;58098;51.680;5.134;2023-02-11T11:59:08;103687.00;;;9.19;100.00
70546;BME280;58098;51.680;5.134;2023-02-11T12:04:35;103697.09;;;9.30;100.00
70546;BME280;58098;51.680;5.134;2023-02-11T12:07:28;103692.59;;;9.35;100.00
70546;BME280;58098;51.680;5.134;2023-02-11T12:10:30;103702.09;;;9.38;100.00
70546;BME280;58098;51.680;5.134;2023-02-11T12:15:56;103678.69;;;9.36;100.00
70546;BME280;58098;51.680;5.134;2023-02-11T12:26:20;103669.22;;;9.32;100.00
70546;BME280;58098;51.680;5.134;2023-02-11T12:29:00;103671.94;;;9.29;100.00
70546;BME280;58098;51.680;5.134;2023-02-11T12:31:53;103677.88;;;9.34;100.00
70546;BME280;58098;51.680;5.134;2023-02-11T12:37:08;103669.59;;;9.49;100.00
70546;BME280;58098;51.680;5.134;2023-02-11T12:40:12;103650.19;;;9.59;100.00
70546;BME280;58098;51.680;5.134;2023-02-11T12:48:24;103657.63;;;10.28;100.00
70546;BME280;58098;51.680;5.134;2023-02-11T12:53:57;103639.31;;;10.30;100.00
70546;BME280;58098;51.680;5.134;2023-02-11T12:56:30;103638.50;;;10.28;100.00
70546;BME280;58098;51.680;5.134;2023-02-11T12:58:59;103638.88;;;10.17;100.00
70546;BME280;58098;51.680;5.134;2023-02-11T13:01:33;103645.84;;;10.17;100.00
70546;BME280;58098;51.680;5.134;2023-02-11T13:04:19;103659.97;;;10.10;100.00
70546;BME280;58098;51.680;5.134;2023-02-11T13:06:51;103657.06;;;9.91;100.00
70546;BME280;58098;51.680;5.134;2023-02-11T13:09:26;103653.47;;;9.95;100.00
70546;BME280;58098;51.680;5.134;2023-02-11T13:11:57;103653.25;;;10.01;100.00
70546;BME280;58098;51.680;5.134;2023-02-11T13:14:29;103628.09;;;10.00;100.00
70546;BME280;58098;51.680;5.134;2023-02-11T13:16:57;103651.28;;;10.08;100.00
70546;BME280;58098;51.680;5.134;2023-02-11T13:19:33;103649.44;;;10.13;100.00
70546;BME280;58098;51.680;5.134;2023-02-11T13:24:54;103647.38;;;9.94;100.00
70546;BME280;58098;51.680;5.134;2023-02-11T13:30:19;103600.91;;;9.79;100.00
70546;BME280;58098;51.680;5.134;2023-02-11T13:38:19;103645.22;;;10.35;100.00
70546;BME280;58098;51.680;5.134;2023-02-11T13:41:05;103646.88;;;10.37;100.00
70546;BME280;58098;51.680;5.134;2023-02-11T13:43:35;103640.22;;;10.29;100.00
70546;BME280;58098;51.680;5.134;2023-02-11T13:46:05;103642.94;;;10.26;100.00
70546;BME280;58098;51.680;5.134;2023-02-11T13:48:44;103642.75;;;10.32;100.00
70546;BME280;58098;51.680;5.134;2023-02-11T13:51:13;103626.47;;;10.24;100.00
70546;BME280;58098;51.680;5.134;2023-02-11T13:53:50;103644.44;;;10.33;100.00
70546;BME280;58098;51.680;5.134;2023-02-11T13:58:53;103644.91;;;10.18;100.00
70546;BME280;58098;51.680;5.134;2023-02-11T14:04:31;103637.81;;;10.23;100.00
70546;BME280;58098;51.680;5.134;2023-02-11T14:07:30;103652.16;;;10.36;100.00
70546;BME280;58098;51.680;5.134;2023-02-11T14:13:25;103647.84;;;10.35;100.00
70546;BME280;58098;51.680;5.134;2023-02-11T14:16:08;103640.63;;;10.17;100.00
70546;BME280;58098;51.680;5.134;2023-02-11T14:21:14;103632.88;;;10.14;100.00
70546;BME280;58098;51.680;5.134;2023-02-11T14:23:41;103646.06;;;10.08;100.00
70546;BME280;58098;51.680;5.134;2023-02-11T14:28:51;103655.25;;;10.21;100.00
70546;BME280;58098;51.680;5.134;2023-02-11T14:31:48;103658.41;;;10.32;100.00
70546;BME280;58098;51.680;5.134;2023-02-11T14:42:25;103642.53;;;10.12;100.00
70546;BME280;58098;51.680;5.134;2023-02-11T14:44:55;103649.41;;;10.14;100.00
70546;BME280;58098;51.680;5.134;2023-02-11T14:47:29;103644.56;;;10.01;100.00
70546;BME280;58098;51.680;5.134;2023-02-11T14:50:00;103638.06;;;9.86;100.00
70546;BME280;58098;51.680;5.134;2023-02-11T14:52:30;103654.91;;;10.04;100.00
70546;BME280;58098;51.680;5.134;2023-02-11T14:57:40;103652.78;;;9.88;100.00
70546;BME280;58098;51.680;5.134;2023-02-11T15:00:21;103636.88;;;9.98;100.00